Time;durP1;ratioP1;P1;durP2;ratioP2;P2;SDS_P1;SDS_P2;PMS_P1;PMS_P2;Temp;Humidity;BMP_temperature;BMP_pressure;BME280_temperature;BME280_humidity;BME280_pressure;Samples;Min_cycle;Max_cycle;Signal;HPM_P1;HPM_P2
2022/11/10 00:00:45;;;;;;;23.60;6.78;;;9.00;99.90;;;;;;5132286;27;20518;-53
2022/11/10 00:03:11;;;;;;;18.45;5.47;;;9.30;99.90;;;;;;5131251;27;20072;-49
2022/11/10 00:05:38;;;;;;;17.65;5.15;;;9.10;99.90;;;;;;5131148;27;20042;-49
2022/11/10 00:08:10;;;;;;;18.92;5.65;;;8.80;99.90;;;;;;5112811;27;20035;-50
2022/11/10 00:13:26;;;;;;;22.77;5.72;;;8.80;99.90;;;;;;5131036;27;20050;-48
2022/11/10 00:18:37;;;;;;;20.90;5.93;;;9.10;99.90;;;;;;5137062;27;20069;-50
2022/11/10 00:21:07;;;;;;;18.38;5.90;;;8.90;99.90;;;;;;5129964;27;20439;-49
2022/11/10 00:23:33;;;;;;;21.10;5.55;;;8.90;99.90;;;;;;5131361;27;20091;-49
2022/11/10 00:25:59;;;;;;;20.65;6.22;;;9.00;99.90;;;;;;5131247;27;20043;-49
2022/11/10 00:28:25;;;;;;;16.77;6.05;;;9.10;99.90;;;;;;5132101;27;20039;-50
2022/11/10 00:30:50;;;;;;;25.20;6.38;;;8.70;99.90;;;;;;5112811;27;20076;-48
2022/11/10 00:33:16;;;;;;;23.05;6.15;;;8.70;99.90;;;;;;5132386;27;20039;-48
2022/11/10 00:35:42;;;;;;;24.30;5.90;;;8.70;99.90;;;;;;5130597;27;20035;-48
2022/11/10 00:38:07;;;;;;;27.38;6.57;;;8.90;99.90;;;;;;5131591;27;20034;-48
2022/11/10 00:40:33;;;;;;;21.67;6.68;;;8.80;99.90;;;;;;5114499;27;20118;-49
2022/11/10 00:42:58;;;;;;;24.02;6.82;;;9.00;99.90;;;;;;5120374;27;20059;-49
2022/11/10 00:45:24;;;;;;;29.20;6.85;;;9.10;99.90;;;;;;5130694;27;20074;-49
2022/11/10 00:47:50;;;;;;;28.10;7.30;;;8.90;99.90;;;;;;5130642;27;20424;-48
2022/11/10 00:50:16;;;;;;;27.45;7.25;;;8.70;99.90;;;;;;5131316;27;20606;-49
2022/11/10 00:52:41;;;;;;;18.80;6.47;;;9.10;99.90;;;;;;5130746;27;20047;-50
2022/11/10 00:55:07;;;;;;;24.73;6.00;;;8.60;99.90;;;;;;5130630;27;20116;-48
2022/11/10 00:57:33;;;;;;;22.35;6.68;;;8.80;99.90;;;;;;5131762;27;20043;-50
2022/11/10 00:59:59;;;;;;;23.50;6.68;;;8.70;99.90;;;;;;5131262;27;20505;-49
2022/11/10 01:02:24;;;;;;;26.42;7.60;;;8.60;99.90;;;;;;5135076;27;20027;-49
2022/11/10 01:04:50;;;;;;;24.60;5.82;;;8.80;99.90;;;;;;5141323;27;20039;-51
2022/11/10 01:07:16;;;;;;;18.67;6.32;;;9.00;99.90;;;;;;5131477;27;20411;-49
2022/11/10 01:09:41;;;;;;;23.88;6.47;;;9.00;99.90;;;;;;5131148;27;20499;-49
2022/11/10 01:12:07;;;;;;;23.27;6.45;;;9.00;99.90;;;;;;5131374;27;20152;-52
2022/11/10 01:14:32;;;;;;;18.95;6.00;;;8.60;99.90;;;;;;5132477;27;20127;-50
2022/11/10 01:16:58;;;;;;;22.45;5.70;;;8.50;99.90;;;;;;5131266;27;20050;-49
2022/11/10 01:19:24;;;;;;;19.38;5.97;;;8.80;99.90;;;;;;5111969;27;20078;-49
2022/11/10 01:21:51;;;;;;;17.52;5.20;;;8.80;99.90;;;;;;5130621;27;20126;-49
2022/11/10 01:24:20;;;;;;;19.40;5.40;;;8.50;99.90;;;;;;5096254;27;20038;-49
2022/11/10 01:26:47;;;;;;;19.23;5.43;;;8.50;99.90;;;;;;5131041;27;20082;-50
2022/11/10 01:29:12;;;;;;;20.60;5.25;;;8.80;99.90;;;;;;5112795;27;20449;-50
2022/11/10 01:31:38;;;;;;;14.88;4.43;;;8.80;99.90;;;;;;5129455;27;20031;-48
2022/11/10 01:34:04;;;;;;;15.98;4.55;;;8.90;99.90;;;;;;5129857;27;20039;-49
2022/11/10 01:36:30;;;;;;;15.98;4.38;;;9.00;99.90;;;;;;5130556;27;20130;-49
2022/11/10 01:38:55;;;;;;;15.50;4.03;;;8.60;99.90;;;;;;5130616;27;20119;-49
2022/11/10 01:41:21;;;;;;;20.48;4.43;;;8.60;99.90;;;;;;5130768;27;20035;-49
2022/11/10 01:43:47;;;;;;;21.60;4.88;;;9.10;99.90;;;;;;5130702;27;20027;-49
2022/11/10 01:46:13;;;;;;;17.63;5.22;;;8.70;99.90;;;;;;5130909;27;20101;-50
2022/11/10 01:48:50;;;;;;;19.02;5.60;;;9.10;99.90;;;;;;5135141;27;20118;-49
2022/11/10 01:51:22;;;;;;;22.45;5.90;;;9.30;99.90;;;;;;5135087;27;20042;-50
2022/11/10 01:53:52;;;;;;;19.70;6.07;;;9.20;99.90;;;;;;5133939;27;20086;-50
2022/11/10 01:56:19;;;;;;;19.63;5.55;;;9.00;99.90;;;;;;5134025;27;20096;-48
2022/11/10 01:58:51;;;;;;;23.77;6.07;;;9.00;99.90;;;;;;5134592;27;20072;-52
2022/11/10 02:01:17;;;;;;;23.17;7.18;;;9.30;99.90;;;;;;5132646;27;20031;-50
2022/11/10 02:03:48;;;;;;;20.48;7.15;;;9.20;99.90;;;;;;5115606;27;20117;-50
2022/11/10 02:06:15;;;;;;;26.48;6.93;;;9.00;99.90;;;;;;5131307;27;20035;-49
2022/11/10 02:08:43;;;;;;;23.33;7.50;;;9.30;99.90;;;;;;5133930;27;20478;-48
2022/11/10 02:11:08;;;;;;;26.95;8.13;;;9.00;99.90;;;;;;5133403;27;20366;-48
2022/11/10 02:13:34;;;;;;;22.00;7.90;;;9.20;99.90;;;;;;5134428;27;20043;-50
2022/11/10 02:16:00;;;;;;;32.50;8.55;;;9.40;99.90;;;;;;5133935;27;20091;-48
2022/11/10 02:18:26;;;;;;;28.15;8.63;;;9.20;99.90;;;;;;5134436;27;20043;-47
2022/11/10 02:20:51;;;;;;;24.15;8.68;;;9.40;99.90;;;;;;5133490;27;20060;-51
2022/11/10 02:23:29;;;;;;;25.63;9.43;;;9.40;99.90;;;;;;5133494;27;20080;-47
2022/11/10 02:25:56;;;;;;;28.52;9.60;;;9.40;99.90;;;;;;5135064;27;20031;-48
2022/11/10 02:28:23;;;;;;;29.00;9.65;;;9.20;99.90;;;;;;5114789;27;20509;-49
2022/11/10 02:30:49;;;;;;;31.52;10.00;;;9.20;99.90;;;;;;5133632;27;20035;-48
2022/11/10 02:33:18;;;;;;;28.75;9.45;;;8.90;99.90;;;;;;5133003;27;20035;-50
2022/11/10 02:35:45;;;;;;;30.40;9.40;;;9.20;99.90;;;;;;5134051;27;20072;-49
2022/11/10 02:38:10;;;;;;;28.17;9.75;;;8.90;99.90;;;;;;5133522;27;20035;-49
2022/11/10 02:40:36;;;;;;;27.13;10.35;;;8.80;99.90;;;;;;5133577;27;20031;-49
2022/11/10 02:43:08;;;;;;;32.33;10.63;;;9.30;99.90;;;;;;5116018;27;20039;-50
2022/11/10 02:45:34;;;;;;;35.85;10.25;;;9.20;99.90;;;;;;5133820;27;20086;-51
2022/11/10 02:47:59;;;;;;;25.88;9.82;;;9.40;99.90;;;;;;5132658;27;20446;-48
2022/11/10 02:50:25;;;;;;;27.80;10.10;;;9.20;99.90;;;;;;5133438;27;20062;-50
2022/11/10 02:52:51;;;;;;;32.65;10.38;;;9.00;99.90;;;;;;5114119;27;20087;-51
2022/11/10 02:55:17;;;;;;;35.38;10.65;;;8.90;99.90;;;;;;5132357;27;20039;-49
2022/11/10 02:57:42;;;;;;;24.88;11.30;;;9.10;99.90;;;;;;5132476;27;20043;-50
2022/11/10 03:00:08;;;;;;;27.17;10.02;;;8.90;99.90;;;;;;5133645;27;20540;-49
2022/11/10 03:02:34;;;;;;;32.60;9.98;;;9.20;99.90;;;;;;5132607;27;20122;-50
2022/11/10 03:05:00;;;;;;;30.48;11.02;;;9.10;99.90;;;;;;5134517;27;20451;-50
2022/11/10 03:07:25;;;;;;;29.55;9.73;;;9.20;99.90;;;;;;5132428;27;20394;-49
2022/11/10 03:09:51;;;;;;;26.50;10.00;;;9.30;99.90;;;;;;5132330;27;20481;-49
2022/11/10 03:12:17;;;;;;;32.10;9.98;;;8.80;99.90;;;;;;5132563;27;20087;-49
2022/11/10 03:14:43;;;;;;;29.73;10.27;;;8.90;99.90;;;;;;5133031;27;20028;-49
2022/11/10 03:17:08;;;;;;;31.05;9.38;;;9.10;99.90;;;;;;5133071;27;20088;-52
2022/11/10 03:19:34;;;;;;;35.45;10.95;;;9.10;99.90;;;;;;5132323;27;20376;-50
2022/11/10 03:22:00;;;;;;;38.72;9.98;;;9.20;99.90;;;;;;5132569;27;20027;-50
2022/11/10 03:24:26;;;;;;;27.95;9.50;;;8.70;99.90;;;;;;5132379;27;20069;-49
2022/11/10 03:26:52;;;;;;;32.58;10.02;;;9.20;99.90;;;;;;5132843;27;20076;-48
2022/11/10 03:29:17;;;;;;;33.13;9.07;;;9.20;99.90;;;;;;5132390;27;20035;-49
2022/11/10 03:31:43;;;;;;;28.30;9.85;;;9.20;99.90;;;;;;5133603;27;20042;-49
2022/11/10 03:34:09;;;;;;;28.02;9.15;;;9.20;99.90;;;;;;5132605;27;20043;-49
2022/11/10 03:36:34;;;;;;;24.05;9.30;;;8.80;99.90;;;;;;5132730;27;20042;-49
2022/11/10 03:39:00;;;;;;;32.72;8.80;;;8.70;99.90;;;;;;5133612;27;20490;-51
2022/11/10 03:41:26;;;;;;;27.75;8.52;;;8.70;99.90;;;;;;5112996;27;20031;-48
2022/11/10 03:43:51;;;;;;;26.95;8.68;;;8.70;99.90;;;;;;5133660;27;20386;-49
2022/11/10 03:46:17;;;;;;;22.63;9.25;;;9.10;99.90;;;;;;5131192;27;20122;-50
2022/11/10 03:48:43;;;;;;;32.88;9.25;;;8.70;99.90;;;;;;5131509;27;20043;-48
2022/11/10 03:51:09;;;;;;;24.73;8.40;;;9.20;99.90;;;;;;5131658;27;20058;-48
2022/11/10 03:53:35;;;;;;;31.20;8.95;;;9.10;99.90;;;;;;5131262;27;20051;-49
2022/11/10 03:56:01;;;;;;;27.55;8.52;;;8.70;99.90;;;;;;5131660;27;20075;-48
2022/11/10 03:58:27;;;;;;;29.27;9.55;;;9.10;99.90;;;;;;5132402;27;20042;-51
2022/11/10 04:00:54;;;;;;;30.67;9.50;;;8.70;99.90;;;;;;5131634;27;20057;-49
2022/11/10 04:03:20;;;;;;;32.38;11.27;;;8.80;99.90;;;;;;5114127;27;20359;-49
2022/11/10 04:15:40;;;;;;;27.17;9.70;;;8.80;99.90;;;;;;5131937;27;20523;-50
2022/11/10 04:16:43;;;;;;;37.05;11.15;;;8.80;99.90;;;;;;5131030;27;20126;-50
2022/11/10 04:19:09;;;;;;;41.40;11.63;;;9.20;99.90;;;;;;5131384;27;20122;-49
2022/11/10 04:21:35;;;;;;;37.92;11.13;;;8.90;99.90;;;;;;5131316;27;20118;-50
2022/11/10 04:24:00;;;;;;;32.38;12.02;;;8.90;99.90;;;;;;5132306;27;20031;-48
2022/11/10 04:26:29;;;;;;;42.60;12.70;;;8.80;99.90;;;;;;5131571;27;20043;-49
2022/11/10 04:28:57;;;;;;;40.08;13.00;;;8.80;99.90;;;;;;5132794;27;20039;-49
2022/11/10 04:31:25;;;;;;;38.60;13.07;;;9.20;99.90;;;;;;5130633;27;20210;-49
2022/11/10 04:33:51;;;;;;;35.85;12.05;;;8.80;99.90;;;;;;5112341;27;20398;-49
2022/11/10 04:36:19;;;;;;;31.70;11.80;;;9.10;99.90;;;;;;5131978;27;20554;-49
2022/11/10 04:38:45;;;;;;;32.03;11.70;;;9.00;99.90;;;;;;5130884;27;20053;-49
2022/11/10 04:41:11;;;;;;;45.67;13.30;;;8.80;99.90;;;;;;5112182;27;20035;-49
2022/11/10 04:43:38;;;;;;;35.28;11.65;;;9.20;99.90;;;;;;5130859;27;20098;-50
2022/11/10 04:46:05;;;;;;;37.13;12.52;;;9.30;99.90;;;;;;5113267;27;20046;-49
2022/11/10 04:48:32;;;;;;;35.78;12.52;;;8.90;99.90;;;;;;5112939;27;20031;-50
2022/11/10 04:51:03;;;;;;;36.15;12.77;;;9.10;99.90;;;;;;5132912;27;20126;-50
2022/11/10 04:53:29;;;;;;;39.53;12.70;;;8.90;99.90;;;;;;5130418;27;20567;-49
2022/11/10 04:55:55;;;;;;;37.35;12.75;;;8.90;99.90;;;;;;5130434;27;20043;-50
2022/11/10 04:58:20;;;;;;;45.72;14.00;;;9.30;99.90;;;;;;5131037;27;20027;-50
2022/11/10 05:00:46;;;;;;;39.80;13.35;;;9.10;99.90;;;;;;5112350;27;20043;-50
2022/11/10 05:03:12;;;;;;;36.20;14.15;;;9.20;99.90;;;;;;5131632;27;20031;-49
2022/11/10 05:05:38;;;;;;;36.80;13.57;;;8.80;99.90;;;;;;5130346;27;20386;-49
2022/11/10 05:08:05;;;;;;;38.53;14.00;;;8.80;99.90;;;;;;5130644;27;20039;-50
2022/11/10 05:10:31;;;;;;;34.97;13.70;;;8.80;99.90;;;;;;5131177;27;20423;-49
2022/11/10 05:12:57;;;;;;;42.65;12.48;;;8.80;99.90;;;;;;5130955;27;20046;-48
2022/11/10 05:15:24;;;;;;;35.53;12.35;;;8.80;99.90;;;;;;5132120;27;20470;-50
2022/11/10 05:17:52;;;;;;;37.58;13.30;;;9.20;99.90;;;;;;5131592;27;20027;-50
2022/11/10 05:20:19;;;;;;;34.97;12.88;;;9.20;99.90;;;;;;5133245;27;20431;-50
2022/11/10 05:23:36;;;;;;;41.58;14.18;;;8.70;99.90;;;;;;5134431;27;20067;-50
2022/11/10 05:25:33;;;;;;;36.65;14.10;;;9.30;99.90;;;;;;5133834;27;20100;-49
2022/11/10 05:27:59;;;;;;;33.83;13.13;;;9.30;99.90;;;;;;5134747;27;20077;-49
2022/11/10 05:30:25;;;;;;;39.92;12.20;;;9.30;99.90;;;;;;5134523;27;20070;-52
2022/11/10 05:32:50;;;;;;;34.00;13.07;;;9.20;99.90;;;;;;5116407;27;20409;-50
2022/11/10 05:35:16;;;;;;;34.10;12.48;;;8.80;99.90;;;;;;5116011;27;20070;-49
2022/11/10 05:37:42;;;;;;;31.65;12.85;;;9.20;99.90;;;;;;5115996;27;20054;-49
2022/11/10 05:40:08;;;;;;;38.67;13.48;;;8.80;99.90;;;;;;5134414;27;20035;-51
2022/11/10 05:42:33;;;;;;;37.60;12.93;;;9.10;99.90;;;;;;5134357;27;20506;-48
2022/11/10 05:44:59;;;;;;;36.83;12.52;;;9.20;99.90;;;;;;5134494;27;20074;-51
2022/11/10 05:47:25;;;;;;;40.95;13.13;;;8.80;99.90;;;;;;5135859;27;20066;-50
2022/11/10 05:49:50;;;;;;;38.22;13.55;;;8.80;99.90;;;;;;5133305;27;20080;-51
2022/11/10 05:52:16;;;;;;;35.47;12.30;;;9.40;99.90;;;;;;5133757;27;20088;-49
2022/11/10 05:54:41;;;;;;;44.03;12.93;;;8.70;99.90;;;;;;5133841;27;20042;-50
2022/11/10 05:57:07;;;;;;;35.45;12.82;;;8.80;99.90;;;;;;5115584;27;20039;-49
2022/11/10 05:59:33;;;;;;;36.53;12.48;;;9.20;99.90;;;;;;5133610;27;20092;-49
2022/11/10 06:01:58;;;;;;;33.53;12.00;;;8.70;99.90;;;;;;5114336;27;20064;-49
2022/11/10 06:04:24;;;;;;;41.88;13.10;;;9.20;99.90;;;;;;5134414;27;20035;-48
2022/11/10 06:06:50;;;;;;;36.88;13.02;;;8.80;99.90;;;;;;5134183;27;20042;-50
2022/11/10 06:09:15;;;;;;;33.05;12.82;;;9.30;99.90;;;;;;5134445;27;20068;-49
2022/11/10 06:11:41;;;;;;;35.55;12.93;;;9.10;99.90;;;;;;5133751;27;20035;-49
2022/11/10 06:14:06;;;;;;;32.05;13.18;;;8.60;99.90;;;;;;5134959;27;20037;-48
2022/11/10 06:16:32;;;;;;;35.40;13.15;;;9.10;99.90;;;;;;5134187;27;20047;-48
2022/11/10 06:18:58;;;;;;;33.05;12.45;;;9.00;99.90;;;;;;5133368;27;20032;-50
2022/11/10 06:21:23;;;;;;;45.53;13.40;;;8.90;99.90;;;;;;5133752;27;21175;-48
2022/11/10 06:23:49;;;;;;;38.63;13.85;;;8.60;99.90;;;;;;5133813;27;20478;-48
2022/11/10 06:26:14;;;;;;;33.88;13.32;;;9.00;99.90;;;;;;5135009;27;20031;-49
2022/11/10 06:28:40;;;;;;;31.25;13.27;;;8.60;99.90;;;;;;5133942;27;20163;-48
2022/11/10 06:31:06;;;;;;;40.60;14.27;;;9.00;99.90;;;;;;5133681;27;20496;-48
2022/11/10 06:33:31;;;;;;;38.13;15.48;;;8.50;99.90;;;;;;5132244;27;20069;-50
2022/11/10 06:35:57;;;;;;;42.25;15.50;;;9.00;99.90;;;;;;5132489;27;20075;-49
2022/11/10 06:38:23;;;;;;;38.60;14.27;;;9.00;99.90;;;;;;5133897;27;20148;-50
2022/11/10 06:40:48;;;;;;;41.95;15.68;;;8.60;99.90;;;;;;5114662;27;20367;-49
2022/11/10 06:43:14;;;;;;;42.45;16.02;;;9.00;99.90;;;;;;5132821;27;20087;-49
2022/11/10 06:45:39;;;;;;;40.13;15.25;;;9.10;99.90;;;;;;5111943;27;20043;-48
2022/11/10 06:48:15;;;;;;;33.92;16.15;;;9.20;99.90;;;;;;5128774;27;20484;-49
2022/11/10 06:50:41;;;;;;;36.15;15.35;;;9.10;99.90;;;;;;5129221;27;20046;-49
2022/11/10 06:53:06;;;;;;;36.60;16.33;;;9.00;99.90;;;;;;5125398;27;20040;-50
2022/11/10 06:55:32;;;;;;;44.88;17.52;;;9.10;99.90;;;;;;5126900;27;20047;-49
2022/11/10 06:57:58;;;;;;;45.83;17.58;;;8.70;99.90;;;;;;5127931;27;20389;-48
2022/11/10 07:00:25;;;;;;;40.88;16.80;;;9.00;99.90;;;;;;5124572;27;20130;-49
2022/11/10 07:03:05;;;;;;;38.47;16.08;;;8.60;99.90;;;;;;5126603;27;20575;-49
2022/11/10 07:05:33;;;;;;;50.63;16.13;;;8.80;99.90;;;;;;5123430;27;20096;-48
2022/11/10 07:08:14;;;;;;;42.85;17.60;;;8.60;99.90;;;;;;5123084;27;20031;-49
2022/11/10 07:10:43;;;;;;;47.33;16.10;;;8.60;99.90;;;;;;5127695;27;20096;-49
2022/11/10 07:13:10;;;;;;;41.65;17.15;;;9.00;99.90;;;;;;5127470;27;20039;-48
2022/11/10 07:15:36;;;;;;;41.90;17.55;;;8.90;99.90;;;;;;5123755;27;20035;-49
2022/11/10 07:18:03;;;;;;;40.67;16.83;;;9.20;99.90;;;;;;5130146;27;20062;-48
2022/11/10 07:20:32;;;;;;;40.78;18.63;;;9.10;99.90;;;;;;5131095;27;20039;-50
2022/11/10 07:22:59;;;;;;;41.67;18.08;;;9.00;99.90;;;;;;5132333;27;20432;-50
2022/11/10 07:25:26;;;;;;;46.85;17.00;;;8.70;99.90;;;;;;5131958;27;20375;-49
2022/11/10 07:27:59;;;;;;;36.80;17.42;;;8.70;99.90;;;;;;5132034;27;20046;-49
2022/11/10 07:30:26;;;;;;;44.47;17.45;;;8.80;99.90;;;;;;5113634;27;20122;-50
2022/11/10 07:33:05;;;;;;;40.45;16.85;;;9.20;99.90;;;;;;5131426;27;20035;-49
2022/11/10 07:35:32;;;;;;;43.95;17.33;;;8.70;99.90;;;;;;5131956;27;20043;-49
2022/11/10 07:38:01;;;;;;;39.55;15.80;;;8.90;99.90;;;;;;5113599;27;20038;-48
2022/11/10 07:40:27;;;;;;;46.75;16.73;;;9.20;99.90;;;;;;5132469;27;20096;-49
2022/11/10 07:42:53;;;;;;;43.20;16.33;;;9.30;99.90;;;;;;5132385;27;20042;-50
2022/11/10 07:45:19;;;;;;;39.00;16.70;;;9.00;99.90;;;;;;5113910;27;20138;-49
2022/11/10 07:47:44;;;;;;;44.05;16.33;;;9.00;99.90;;;;;;5132936;27;20039;-49
2022/11/10 07:50:10;;;;;;;40.85;16.05;;;9.00;99.90;;;;;;5131330;27;20084;-49
2022/11/10 07:52:36;;;;;;;40.95;15.45;;;9.10;99.90;;;;;;5131398;27;20117;-49
2022/11/10 07:55:03;;;;;;;45.73;15.80;;;9.00;99.90;;;;;;5130984;27;20059;-48
2022/11/10 07:57:28;;;;;;;40.75;14.95;;;9.20;99.90;;;;;;5131709;27;20051;-49
2022/11/10 07:59:54;;;;;;;40.20;13.98;;;9.60;99.90;;;;;;5131797;27;20095;-49
2022/11/10 08:02:20;;;;;;;40.13;14.07;;;9.70;99.90;;;;;;5130900;27;20610;-49
2022/11/10 08:04:45;;;;;;;39.35;14.40;;;9.70;99.90;;;;;;5131889;27;20035;-50
2022/11/10 08:07:11;;;;;;;33.53;13.20;;;9.70;99.90;;;;;;5132579;27;20114;-49
2022/11/10 08:09:37;;;;;;;36.60;13.20;;;9.40;99.90;;;;;;5114225;27;20039;-53
2022/11/10 08:12:02;;;;;;;37.67;12.90;;;9.60;99.90;;;;;;5132187;27;20038;-49
2022/11/10 08:14:28;;;;;;;37.22;12.48;;;10.00;99.90;;;;;;5132316;27;20039;-49
2022/11/10 08:16:54;;;;;;;30.02;12.85;;;9.50;99.90;;;;;;5130822;27;20039;-52
2022/11/10 08:19:19;;;;;;;32.70;12.70;;;9.60;99.90;;;;;;5131159;27;20063;-50
2022/11/10 08:21:45;;;;;;;28.17;11.50;;;10.20;99.90;;;;;;5108571;27;20034;-48
2022/11/10 08:24:11;;;;;;;31.83;12.10;;;10.30;99.90;;;;;;5129889;27;20075;-48
2022/11/10 08:26:36;;;;;;;34.65;11.70;;;10.30;99.90;;;;;;5130419;27;20542;-49
2022/11/10 08:29:02;;;;;;;32.35;11.40;;;10.10;99.90;;;;;;5094199;27;20076;-50
2022/11/10 08:31:28;;;;;;;28.38;10.88;;;10.10;99.90;;;;;;5126648;27;20039;-48
2022/11/10 08:33:54;;;;;;;26.40;10.23;;;10.30;99.90;;;;;;5128486;27;20031;-49
2022/11/10 08:36:19;;;;;;;32.50;10.75;;;10.30;99.90;;;;;;5121537;27;20462;-48
2022/11/10 08:38:45;;;;;;;30.42;10.10;;;10.30;99.90;;;;;;5109806;27;20039;-49
2022/11/10 08:41:11;;;;;;;31.30;11.40;;;10.90;99.90;;;;;;5122808;27;20038;-50
2022/11/10 08:43:36;;;;;;;30.35;9.70;;;10.90;99.90;;;;;;5129654;27;20031;-47
2022/11/10 08:46:02;;;;;;;23.38;9.10;;;10.70;99.90;;;;;;5111884;27;20042;-48
2022/11/10 08:48:28;;;;;;;25.80;9.15;;;10.60;99.90;;;;;;5131616;27;20043;-49
2022/11/10 08:50:54;;;;;;;37.05;10.05;;;10.60;99.90;;;;;;5112673;27;20410;-48
2022/11/10 08:53:22;;;;;;;24.92;9.63;;;11.00;99.90;;;;;;5129715;27;20082;-49
2022/11/10 08:55:49;;;;;;;25.35;9.45;;;11.00;99.90;;;;;;5129265;27;20485;-51
2022/11/10 08:58:20;;;;;;;29.77;9.50;;;10.50;99.90;;;;;;5135206;27;20035;-51
2022/11/10 09:00:47;;;;;;;32.95;10.40;;;10.90;99.90;;;;;;5135052;27;20035;-50
2022/11/10 09:03:18;;;;;;;30.67;11.40;;;10.60;99.90;;;;;;5134377;27;20039;-49
2022/11/10 09:05:46;;;;;;;32.38;13.02;;;10.60;99.90;;;;;;5134817;27;20057;-49
2022/11/10 09:08:12;;;;;;;37.30;15.00;;;10.80;99.90;;;;;;5130936;27;20039;-52
2022/11/10 09:10:43;;;;;;;44.78;16.17;;;11.00;99.90;;;;;;5130754;27;20479;-51
2022/11/10 09:13:11;;;;;;;45.50;18.00;;;11.20;99.90;;;;;;5125801;27;20043;-50
2022/11/10 09:15:37;;;;;;;58.58;20.42;;;10.90;99.90;;;;;;5121940;27;20047;-49
2022/11/10 09:18:05;;;;;;;57.75;21.15;;;11.00;99.90;;;;;;5126362;27;20046;-51
2022/11/10 09:20:34;;;;;;;53.53;21.33;;;11.00;99.90;;;;;;5102482;27;20031;-49
2022/11/10 09:23:04;;;;;;;48.88;20.05;;;11.20;99.90;;;;;;5126326;27;20092;-49
2022/11/10 09:25:30;;;;;;;44.67;17.90;;;11.70;99.90;;;;;;5129267;27;20051;-50
2022/11/10 09:27:55;;;;;;;38.50;14.75;;;11.40;99.90;;;;;;5133224;27;20058;-50
2022/11/10 09:30:21;;;;;;;29.48;11.23;;;11.50;99.90;;;;;;5117354;27;20078;-50
2022/11/10 09:32:56;;;;;;;29.27;8.20;;;11.50;99.90;;;;;;5132840;27;20031;-50
2022/11/10 09:35:22;;;;;;;28.50;8.07;;;11.80;99.90;;;;;;5132869;27;20043;-49
2022/11/10 09:37:47;;;;;;;23.80;8.20;;;11.70;99.90;;;;;;5131527;27;20043;-49
2022/11/10 09:40:30;;;;;;;22.95;5.78;;;12.10;99.90;;;;;;5133096;27;20027;-49
2022/11/10 09:42:59;;;;;;;20.65;6.28;;;12.00;99.90;;;;;;5132407;27;20067;-50
2022/11/10 09:45:36;;;;;;;17.98;5.90;;;12.20;99.90;;;;;;5097861;27;20086;-50
2022/11/10 09:48:23;;;;;;;23.25;7.07;;;12.20;99.90;;;;;;5133203;27;20390;-51
2022/11/10 09:50:58;;;;;;;19.73;5.20;;;12.30;99.90;;;;;;5132805;27;20038;-51
2022/11/10 09:53:49;;;;;;;18.48;5.82;;;12.10;99.90;;;;;;5131529;27;20050;-50
2022/11/10 09:56:21;;;;;;;18.23;5.75;;;12.10;99.90;;;;;;5129985;27;20043;-50
2022/11/10 09:58:47;;;;;;;25.02;6.10;;;12.20;99.90;;;;;;5132507;27;20474;-51
2022/11/10 10:01:12;;;;;;;21.95;5.68;;;12.40;99.90;;;;;;5132246;27;20041;-51
2022/11/10 10:03:46;;;;;;;18.05;5.60;;;12.70;99.90;;;;;;5114268;27;20060;-51
2022/11/10 10:06:14;;;;;;;16.85;5.63;;;13.20;99.90;;;;;;5132655;27;20471;-53
2022/11/10 10:08:48;;;;;;;21.25;4.80;;;13.50;99.90;;;;;;5130952;27;20046;-51
2022/11/10 10:11:20;;;;;;;18.38;5.05;;;13.50;99.90;;;;;;5132454;27;20529;-52
2022/11/10 10:14:17;;;;;;;20.95;5.07;;;13.90;99.90;;;;;;5132938;27;20041;-51
2022/11/10 10:16:59;;;;;;;20.92;5.57;;;13.90;99.90;;;;;;5130438;27;20439;-50
2022/11/10 10:19:36;;;;;;;19.70;4.40;;;13.90;99.90;;;;;;5130685;27;20435;-54
2022/11/10 10:22:28;;;;;;;17.77;4.32;;;13.90;99.90;;;;;;5134538;27;20386;-52
2022/11/10 10:24:58;;;;;;;18.98;4.90;;;13.90;99.90;;;;;;5131000;27;20038;-54
2022/11/10 10:27:25;;;;;;;18.13;4.47;;;14.00;99.90;;;;;;5131949;27;20047;-55
2022/11/10 10:29:52;;;;;;;18.38;4.60;;;13.90;99.90;;;;;;5132192;27;20130;-53
2022/11/10 10:32:19;;;;;;;17.98;4.43;;;13.80;99.90;;;;;;5132235;27;20045;-50
2022/11/10 10:34:45;;;;;;;14.63;4.32;;;13.90;99.90;;;;;;5133579;27;20051;-52
2022/11/10 10:37:44;;;;;;;19.40;5.10;;;14.00;99.90;;;;;;5132441;27;20484;-50
2022/11/10 10:40:21;;;;;;;17.50;4.43;;;14.10;99.90;;;;;;5128567;27;20035;-54
2022/11/10 10:42:47;;;;;;;15.50;4.03;;;14.20;99.90;;;;;;5114323;27;20478;-50
2022/11/10 10:45:13;;;;;;;19.80;4.55;;;14.10;99.90;;;;;;5113201;27;20035;-53
2022/11/10 10:47:39;;;;;;;19.25;4.60;;;14.00;99.90;;;;;;5130867;27;20039;-54
2022/11/10 10:50:31;;;;;;;20.75;4.28;;;14.10;99.90;;;;;;5123779;27;20039;-51
2022/11/10 10:53:14;;;;;;;23.23;4.60;;;14.10;99.90;;;;;;5119579;27;20039;-50
2022/11/10 10:56:05;;;;;;;18.38;4.68;;;14.10;99.90;;;;;;5126889;27;20047;-50
2022/11/10 10:58:34;;;;;;;18.88;4.25;;;14.20;99.90;;;;;;5132916;27;20031;-52
2022/11/10 11:01:06;;;;;;;18.92;4.10;;;14.30;99.90;;;;;;5133062;27;20485;-49
2022/11/10 11:03:49;;;;;;;20.05;4.10;;;14.50;99.90;;;;;;5114249;27;20039;-49
2022/11/10 11:06:17;;;;;;;23.13;4.50;;;14.70;99.90;;;;;;5132680;27;20050;-50
2022/11/10 11:08:57;;;;;;;19.52;4.30;;;15.00;99.90;;;;;;5114317;27;20055;-50
2022/11/10 11:11:31;;;;;;;21.33;4.53;;;15.10;99.90;;;;;;5113974;27;20035;-52
2022/11/10 11:14:13;;;;;;;19.52;4.40;;;15.40;99.90;;;;;;5132473;27;20064;-50
2022/11/10 11:17:02;;;;;;;15.13;3.72;;;15.60;99.90;;;;;;5132640;27;20046;-50
2022/11/10 11:19:34;;;;;;;21.52;4.40;;;15.70;99.90;;;;;;5132478;27;20043;-49
2022/11/10 11:22:03;;;;;;;16.08;4.45;;;15.70;99.90;;;;;;5132754;27;20096;-49
2022/11/10 11:24:39;;;;;;;17.73;3.70;;;15.40;99.90;;;;;;5130019;27;20035;-49
2022/11/10 11:27:16;;;;;;;19.27;4.03;;;15.10;99.90;;;;;;5138184;27;20030;-49
2022/11/10 11:29:57;;;;;;;23.85;5.05;;;14.70;99.90;;;;;;5140098;27;20057;-49
2022/11/10 11:33:00;;;;;;;16.33;3.80;;;14.80;99.90;;;;;;5134463;27;20039;-47
2022/11/10 11:35:54;;;;;;;16.02;3.72;;;15.10;99.90;;;;;;5131558;27;20133;-49
2022/11/10 11:38:23;;;;;;;18.45;4.07;;;15.20;99.90;;;;;;5131227;27;20031;-52
2022/11/10 11:41:01;;;;;;;19.52;3.90;;;15.10;99.90;;;;;;5131335;27;20122;-52
2022/11/10 11:43:45;;;;;;;19.02;4.18;;;14.90;99.90;;;;;;5131805;27;20039;-52
2022/11/10 11:46:14;;;;;;;18.27;4.70;;;14.80;99.90;;;;;;5125772;27;20043;-51
2022/11/10 11:48:50;;;;;;;20.10;4.40;;;14.70;99.90;;;;;;5126844;27;20401;-48
2022/11/10 11:51:44;;;;;;;17.17;3.88;;;14.60;99.90;;;;;;5124415;27;20073;-49
2022/11/10 11:54:39;;;;;;;20.10;3.85;;;14.50;99.90;;;;;;5136823;27;20055;-50
2022/11/10 11:57:27;;;;;;;21.08;3.92;;;14.30;99.90;;;;;;5131674;27;20043;-49
2022/11/10 12:00:09;;;;;;;20.10;4.28;;;14.30;99.90;;;;;;5130384;27;20066;-49
2022/11/10 12:03:00;;;;;;;16.60;4.07;;;14.30;99.90;;;;;;5131285;27;20049;-49
2022/11/10 12:05:41;;;;;;;15.65;3.38;;;14.30;99.90;;;;;;5113175;27;20455;-49
2022/11/10 12:08:10;;;;;;;16.95;3.30;;;14.40;99.90;;;;;;5131364;27;20039;-49
2022/11/10 12:10:47;;;;;;;17.05;3.20;;;14.30;99.90;;;;;;5130693;27;20036;-50
2022/11/10 12:13:38;;;;;;;17.30;3.65;;;14.50;99.90;;;;;;5130265;27;20134;-49
2022/11/10 12:16:25;;;;;;;18.70;3.65;;;14.40;99.90;;;;;;5125140;27;20050;-49
2022/11/10 12:19:17;;;;;;;21.70;3.63;;;14.40;99.90;;;;;;5129214;27;20038;-52
2022/11/10 12:21:50;;;;;;;20.75;3.95;;;14.50;99.90;;;;;;5130133;27;20039;-49
2022/11/10 12:24:58;;;;;;;18.17;3.38;;;14.50;99.90;;;;;;5132946;27;20027;-49
2022/11/10 12:27:31;;;;;;;15.68;3.10;;;14.40;99.90;;;;;;5131251;27;20042;-49
2022/11/10 12:29:56;;;;;;;17.77;3.50;;;14.50;99.90;;;;;;5114253;27;20398;-50
2022/11/10 12:32:30;;;;;;;16.25;3.25;;;14.50;99.90;;;;;;5131665;27;20045;-48
2022/11/10 12:34:59;;;;;;;;;;;14.70;99.90;;;;;;5132976;27;20113;-49
2022/11/10 12:37:57;;;;;;;12.93;2.83;;;14.70;99.90;;;;;;5129590;27;19923;-50
2022/11/10 12:40:39;;;;;;;19.73;3.90;;;14.90;99.90;;;;;;5121900;27;20122;-50
2022/11/10 12:43:12;;;;;;;16.15;3.47;;;14.80;99.90;;;;;;5131956;27;20420;-48
2022/11/10 12:45:50;;;;;;;17.02;3.35;;;14.90;99.90;;;;;;5131646;27;20035;-49
2022/11/10 12:48:17;;;;;;;18.42;4.15;;;14.80;99.90;;;;;;5131500;27;20066;-48
2022/11/10 12:51:06;;;;;;;15.82;3.13;;;14.80;99.90;;;;;;5130783;27;20038;-49
2022/11/10 12:53:36;;;;;;;18.17;3.30;;;14.70;99.90;;;;;;5088238;27;20054;-48
2022/11/10 12:56:41;;;;;;;16.65;3.20;;;14.60;99.90;;;;;;5132068;27;20051;-49
2022/11/10 12:59:19;;;;;;;17.05;3.55;;;14.70;99.90;;;;;;5131532;27;20225;-50
2022/11/10 13:01:48;;;;;;;15.68;4.13;;;14.70;99.90;;;;;;5133058;27;20061;-48
2022/11/10 13:04:15;;;;;;;15.73;3.78;;;14.80;99.90;;;;;;5130505;27;20035;-50